createdAt,value
2023-05-02T00:01:59.868Z,8.43
2023-05-02T00:04:26.916Z,7.90
2023-05-02T00:06:54.347Z,6.80
2023-05-02T00:09:22.130Z,8.32
2023-05-02T00:11:49.123Z,9.02
2023-05-02T00:14:16.204Z,7.45
2023-05-02T00:16:43.225Z,9.82
2023-05-02T00:19:10.219Z,8.43
2023-05-02T00:21:37.222Z,8.25
2023-05-02T00:24:04.470Z,8.32
2023-05-02T00:26:31.936Z,8.63
2023-05-02T00:28:59.210Z,12.32
2023-05-02T00:31:26.360Z,10.13
2023-05-02T00:33:53.337Z,10.55
2023-05-02T00:36:20.593Z,9.48
2023-05-02T00:38:47.687Z,15.93
2023-05-02T00:41:16.858Z,14.43
2023-05-02T00:43:43.892Z,12.60
2023-05-02T00:46:13.228Z,10.52
2023-05-02T00:48:40.385Z,10.38
2023-05-02T00:51:08.730Z,10.25
2023-05-02T00:53:36.410Z,9.68
2023-05-02T00:56:03.593Z,11.18
2023-05-02T00:58:31.088Z,12.57
2023-05-02T01:01:16.187Z,11.40
2023-05-02T01:04:10.751Z,11.40
2023-05-02T01:06:58.861Z,11.27
2023-05-02T01:09:42.284Z,11.77
2023-05-02T01:12:31.566Z,14.70
2023-05-02T01:15:02.450Z,15.40
2023-05-02T01:17:35.262Z,12.68
2023-05-02T01:20:17.670Z,9.80
2023-05-02T01:22:45.238Z,10.20
2023-05-02T01:25:24.257Z,12.05
2023-05-02T01:27:53.958Z,11.18
2023-05-02T01:30:22.735Z,10.68
2023-05-02T01:32:52.581Z,10.27
2023-05-02T01:35:21.516Z,8.40
2023-05-02T01:37:50.487Z,10.93
2023-05-02T01:40:20.745Z,9.25
2023-05-02T01:42:50.337Z,10.20
2023-05-02T01:45:19.591Z,12.30
2023-05-02T01:47:48.867Z,9.50
2023-05-02T01:50:20.588Z,9.57
2023-05-02T01:52:49.899Z,8.52
2023-05-02T01:55:17.873Z,12.52
2023-05-02T01:57:46.933Z,7.18
2023-05-02T02:00:17.009Z,10.05
2023-05-02T02:02:46.869Z,8.80
2023-05-02T02:05:16.223Z,7.80
2023-05-02T02:07:44.270Z,9.38
2023-05-02T02:10:11.701Z,7.15
2023-05-02T02:12:40.607Z,9.43
2023-05-02T02:15:17.044Z,8.00
2023-05-02T02:17:49.520Z,8.07
2023-05-02T02:20:17.966Z,7.90
2023-05-02T02:22:47.125Z,7.18
2023-05-02T02:25:17.699Z,7.65
2023-05-02T02:27:44.799Z,8.90
2023-05-02T02:30:12.197Z,10.48
2023-05-02T02:32:39.452Z,9.15
2023-05-02T02:35:07.675Z,9.73
2023-05-02T02:37:50.526Z,9.30
2023-05-02T02:40:27.162Z,8.70
2023-05-02T02:43:21.535Z,10.93
2023-05-02T02:46:13.348Z,8.55
2023-05-02T02:49:12.887Z,7.60
2023-05-02T02:52:11.183Z,11.80
2023-05-02T02:54:50.309Z,7.22
2023-05-02T02:57:37.955Z,8.73
2023-05-02T03:00:14.772Z,7.95
2023-05-02T03:02:43.390Z,8.70
2023-05-02T03:05:11.880Z,7.72
2023-05-02T03:07:38.885Z,7.95
2023-05-02T03:10:07.169Z,8.52
2023-05-02T03:12:34.199Z,9.70
2023-05-02T03:15:24.444Z,9.25
2023-05-02T03:17:51.494Z,8.38
2023-05-02T03:20:18.738Z,10.55
2023-05-02T03:22:45.985Z,9.27
2023-05-02T03:25:13.083Z,9.20
2023-05-02T03:27:40.078Z,11.00
2023-05-02T03:30:07.972Z,8.35
2023-05-02T03:32:34.952Z,9.38
2023-05-02T03:35:01.958Z,9.30
2023-05-02T03:37:28.980Z,12.13
2023-05-02T03:39:56.107Z,10.43
2023-05-02T03:42:23.143Z,9.32
2023-05-02T03:44:54.033Z,10.30
2023-05-02T03:47:21.090Z,12.52
2023-05-02T03:49:48.138Z,9.15
2023-05-02T03:52:15.184Z,9.25
2023-05-02T03:54:44.084Z,9.38
2023-05-02T03:57:12.542Z,10.02
2023-05-02T03:59:41.865Z,8.60
2023-05-02T04:02:09.545Z,10.48
2023-05-02T04:04:37.100Z,10.98
2023-05-02T04:07:05.227Z,10.35
2023-05-02T04:09:32.310Z,11.10
2023-05-02T04:11:59.327Z,11.75
2023-05-02T04:14:26.336Z,12.75
2023-05-02T04:16:53.515Z,12.65
2023-05-02T04:19:20.579Z,12.02
2023-05-02T04:21:47.747Z,11.88
2023-05-02T04:24:15.018Z,12.20
2023-05-02T04:26:42.005Z,11.02
2023-05-02T04:29:09.008Z,12.48
2023-05-02T04:31:36.609Z,11.20
2023-05-02T04:34:04.614Z,13.65
2023-05-02T04:36:31.615Z,11.45
2023-05-02T04:38:58.884Z,13.57
2023-05-02T04:41:26.102Z,11.75
2023-05-02T04:43:53.124Z,21.98
2023-05-02T04:46:20.170Z,10.32
2023-05-02T04:48:47.221Z,11.48
2023-05-02T04:51:16.818Z,15.27
2023-05-02T04:53:44.300Z,14.40
2023-05-02T04:56:11.780Z,11.73
2023-05-02T04:58:38.761Z,14.10
2023-05-02T05:01:06.496Z,11.73
2023-05-02T05:03:33.761Z,10.73
2023-05-02T05:06:00.894Z,14.02
2023-05-02T05:08:27.855Z,13.00
2023-05-02T05:10:54.903Z,16.20
2023-05-02T05:13:21.986Z,12.95
2023-05-02T05:15:49.079Z,12.40
2023-05-02T05:18:16.113Z,15.10
2023-05-02T05:20:43.270Z,13.80
2023-05-02T05:23:10.378Z,12.55
2023-05-02T05:25:37.461Z,15.98
2023-05-02T05:28:04.496Z,14.13
2023-05-02T05:30:31.523Z,15.32
2023-05-02T05:32:58.836Z,11.57
2023-05-02T05:35:26.454Z,13.07
2023-05-02T05:37:54.189Z,13.85
2023-05-02T05:40:21.839Z,12.73
2023-05-02T05:42:48.777Z,11.90
2023-05-02T05:45:17.411Z,11.75
2023-05-02T05:47:44.453Z,18.42
2023-05-02T05:50:11.640Z,13.57
2023-05-02T05:52:38.710Z,14.65
2023-05-02T05:55:07.136Z,15.70
2023-05-02T05:57:34.220Z,11.65
2023-05-02T06:00:01.340Z,12.57
2023-05-02T06:02:28.699Z,14.18
2023-05-02T06:04:55.858Z,13.93
2023-05-02T06:07:23.346Z,14.27
2023-05-02T06:09:50.407Z,15.65
2023-05-02T06:12:17.363Z,14.85
2023-05-02T06:14:44.395Z,13.73
2023-05-02T06:17:11.448Z,13.85
2023-05-02T06:19:38.416Z,15.23
2023-05-02T06:22:06.035Z,14.15
2023-05-02T06:24:33.017Z,11.68
2023-05-02T06:27:00.424Z,14.13
2023-05-02T06:29:27.373Z,15.93
2023-05-02T06:31:57.408Z,15.90
2023-05-02T06:34:24.669Z,16.58
2023-05-02T06:36:56.786Z,15.10
2023-05-02T06:39:23.866Z,12.50
2023-05-02T06:41:50.915Z,15.18
2023-05-02T06:44:17.913Z,12.88
2023-05-02T06:46:44.988Z,13.45
2023-05-02T06:49:12.002Z,15.13
2023-05-02T06:51:39.112Z,16.60
2023-05-02T06:54:06.617Z,14.38
2023-05-02T06:56:33.807Z,15.45
2023-05-02T06:59:00.900Z,17.05
2023-05-02T07:01:28.063Z,16.73
2023-05-02T07:03:55.043Z,16.05
2023-05-02T07:06:22.153Z,14.13
2023-05-02T07:08:49.156Z,18.48
2023-05-02T07:11:16.312Z,15.10
2023-05-02T07:13:43.570Z,15.27
2023-05-02T07:16:10.751Z,15.88
2023-05-02T07:18:37.830Z,18.80
2023-05-02T07:21:05.289Z,16.63
2023-05-02T07:23:32.416Z,21.50
2023-05-02T07:25:59.430Z,15.57
2023-05-02T07:28:26.565Z,15.20
2023-05-02T07:30:53.595Z,19.88
2023-05-02T07:33:20.867Z,17.42
2023-05-02T07:35:47.991Z,18.83
2023-05-02T07:38:15.624Z,17.38
2023-05-02T07:40:43.643Z,17.95
2023-05-02T07:43:11.173Z,16.05
2023-05-02T07:45:38.618Z,20.73
2023-05-02T07:48:05.799Z,17.70
2023-05-02T07:50:32.893Z,22.20
2023-05-02T07:53:00.678Z,17.60
2023-05-02T07:55:27.896Z,16.77
2023-05-02T07:57:54.984Z,18.90
2023-05-02T08:00:22.150Z,18.60
2023-05-02T08:02:49.332Z,16.83
2023-05-02T08:05:16.575Z,18.10
2023-05-02T08:07:43.642Z,20.93
2023-05-02T08:10:11.030Z,16.80
2023-05-02T08:12:42.355Z,17.80
2023-05-02T08:15:12.320Z,17.50
2023-05-02T08:17:39.927Z,18.67
2023-05-02T08:20:07.623Z,15.50
2023-05-02T08:22:34.625Z,16.13
2023-05-02T08:25:01.756Z,21.23
2023-05-02T08:27:28.763Z,14.90
2023-05-02T08:29:57.391Z,15.20
2023-05-02T08:32:25.992Z,13.77
2023-05-02T08:34:57.224Z,14.30
2023-05-02T08:37:24.293Z,13.97
2023-05-02T08:39:51.328Z,14.47
2023-05-02T08:42:18.332Z,13.10
2023-05-02T08:44:45.349Z,10.93
2023-05-02T08:47:15.260Z,13.17
2023-05-02T08:49:43.659Z,12.93
2023-05-02T08:52:12.794Z,10.13
2023-05-02T08:54:40.809Z,12.57
2023-05-02T08:57:08.584Z,11.13
2023-05-02T08:59:35.941Z,15.83
2023-05-02T09:02:18.114Z,11.20
2023-05-02T09:04:51.194Z,11.60
2023-05-02T09:07:18.225Z,10.30
2023-05-02T09:09:45.892Z,11.93
2023-05-02T09:12:12.934Z,12.80
2023-05-02T09:14:40.052Z,8.80
2023-05-02T09:17:07.115Z,14.37
2023-05-02T09:19:34.328Z,11.87
2023-05-02T09:22:01.932Z,9.10
2023-05-02T09:24:29.787Z,10.60
2023-05-02T09:27:03.312Z,9.77
2023-05-02T09:29:36.385Z,9.73
2023-05-02T09:32:06.431Z,10.07
2023-05-02T09:34:37.564Z,10.00
2023-05-02T09:37:05.826Z,8.90
2023-05-02T09:39:32.887Z,27.10
2023-05-02T09:42:00.233Z,8.33
2023-05-02T09:44:37.863Z,8.93
2023-05-02T09:47:06.958Z,10.37
2023-05-02T09:49:41.256Z,11.27
2023-05-02T09:52:18.514Z,9.13
2023-05-02T09:54:47.121Z,8.80
2023-05-02T09:57:14.297Z,9.77
2023-05-02T09:59:41.946Z,9.43
2023-05-02T10:02:12.140Z,9.50
2023-05-02T10:04:40.600Z,11.60
2023-05-02T10:07:10.935Z,10.37
2023-05-02T10:09:43.311Z,13.00
2023-05-02T10:12:13.712Z,11.83
2023-05-02T10:14:41.804Z,11.90
2023-05-02T10:17:14.345Z,12.17
2023-05-02T10:20:07.140Z,9.80
2023-05-02T10:22:35.431Z,12.07
2023-05-02T10:25:04.100Z,11.13
2023-05-02T10:27:32.528Z,11.47
2023-05-02T10:30:01.379Z,10.57
2023-05-02T10:32:32.266Z,11.97
2023-05-02T10:35:06.288Z,9.83
2023-05-02T10:37:37.188Z,12.13
2023-05-02T10:40:06.284Z,11.40
2023-05-02T10:42:39.776Z,9.13
2023-05-02T10:45:30.927Z,11.57
2023-05-02T10:48:30.718Z,10.13
2023-05-02T10:51:01.679Z,10.90
2023-05-02T10:53:40.440Z,11.23
2023-05-02T10:56:16.249Z,10.33
2023-05-02T10:58:49.228Z,10.83
2023-05-02T11:01:26.684Z,10.73
2023-05-02T11:03:55.119Z,11.97
2023-05-02T11:06:22.260Z,13.33
2023-05-02T11:08:49.408Z,14.93
2023-05-02T11:11:44.361Z,12.03
2023-05-02T11:14:26.742Z,9.40
2023-05-02T11:17:05.518Z,11.47
2023-05-02T11:19:38.534Z,11.13
2023-05-02T11:22:28.224Z,13.20
2023-05-02T11:24:55.285Z,12.03
2023-05-02T11:27:34.084Z,14.27
2023-05-02T11:30:05.129Z,13.57
2023-05-02T11:32:47.741Z,12.00
2023-05-02T11:35:18.493Z,12.77
2023-05-02T11:37:54.551Z,12.87
2023-05-02T11:40:22.481Z,13.60
2023-05-02T11:42:49.640Z,10.63
2023-05-02T11:45:17.022Z,12.87
2023-05-02T11:47:46.556Z,11.93
2023-05-02T11:50:13.887Z,11.83
2023-05-02T11:52:43.007Z,13.90
2023-05-02T11:55:15.149Z,12.80
2023-05-02T11:57:43.077Z,12.27
2023-05-02T12:00:13.706Z,13.80
2023-05-02T12:02:45.906Z,14.50
2023-05-02T12:05:14.103Z,13.27
2023-05-02T12:07:46.381Z,12.10
2023-05-02T12:10:14.691Z,12.20
2023-05-02T12:12:44.958Z,12.20
2023-05-02T12:15:13.679Z,12.80
2023-05-02T12:17:43.573Z,11.13
2023-05-02T12:20:11.857Z,12.33
2023-05-02T12:22:39.440Z,12.63
2023-05-02T12:25:07.346Z,13.07
2023-05-02T12:27:35.379Z,13.80
2023-05-02T12:30:02.912Z,10.73
2023-05-02T12:32:35.378Z,11.47
2023-05-02T12:35:04.203Z,11.90
2023-05-02T12:37:31.282Z,11.10
2023-05-02T12:39:58.500Z,11.30
2023-05-02T12:42:26.951Z,13.63
2023-05-02T12:44:54.146Z,11.20
2023-05-02T12:47:25.417Z,12.63
2023-05-02T12:49:52.798Z,11.90
2023-05-02T12:52:21.556Z,11.60
2023-05-02T12:54:52.309Z,14.60
2023-05-02T12:57:27.351Z,11.03
2023-05-02T12:59:55.408Z,14.10
2023-05-02T13:02:26.238Z,12.90
2023-05-02T13:05:00.970Z,15.43
2023-05-02T13:07:29.973Z,12.43
2023-05-02T13:09:57.104Z,12.90
2023-05-02T13:12:27.510Z,12.67
2023-05-02T13:14:56.649Z,16.07
2023-05-02T13:17:27.175Z,14.37
2023-05-02T13:20:01.624Z,14.43
2023-05-02T13:22:29.903Z,13.00
2023-05-02T13:24:56.953Z,12.83
2023-05-02T13:27:24.127Z,14.40
2023-05-02T13:29:51.777Z,13.43
2023-05-02T13:32:19.179Z,12.30
2023-05-02T13:34:46.272Z,13.13
2023-05-02T13:37:13.269Z,12.73
2023-05-02T13:39:40.482Z,12.37
2023-05-02T13:42:08.318Z,15.63
2023-05-02T13:44:36.587Z,12.10
2023-05-02T13:47:04.188Z,16.70
2023-05-02T13:49:31.257Z,12.63
2023-05-02T13:51:58.248Z,14.43
2023-05-02T13:54:25.492Z,15.30
2023-05-02T13:56:52.664Z,14.13
2023-05-02T13:59:19.670Z,22.20
2023-05-02T14:01:46.679Z,13.23
2023-05-02T14:04:13.802Z,13.73
2023-05-02T14:06:41.225Z,14.13
2023-05-02T14:09:08.883Z,17.87
2023-05-02T14:11:36.400Z,11.83
2023-05-02T14:14:03.451Z,13.83
2023-05-02T14:16:30.644Z,13.27
2023-05-02T14:18:57.881Z,15.70
2023-05-02T14:21:24.955Z,14.80
2023-05-02T14:23:51.943Z,13.50
2023-05-02T14:26:20.550Z,12.93
2023-05-02T14:28:47.544Z,12.00
2023-05-02T14:31:14.772Z,14.70
2023-05-02T14:33:41.964Z,14.00
2023-05-02T14:36:09.045Z,23.30
2023-05-02T14:38:36.184Z,14.47
2023-05-02T14:41:03.428Z,14.83
2023-05-02T14:43:31.378Z,16.37
2023-05-02T14:45:59.153Z,13.37
2023-05-02T14:48:26.562Z,14.30
2023-05-02T14:50:54.010Z,12.93
2023-05-02T14:53:21.599Z,13.70
2023-05-02T14:55:48.849Z,14.33
2023-05-02T14:58:20.783Z,13.27
2023-05-02T15:00:48.298Z,15.43
2023-05-02T15:03:15.574Z,13.27
2023-05-02T15:05:42.691Z,15.23
2023-05-02T15:08:09.712Z,14.67
2023-05-02T15:10:40.220Z,17.13
2023-05-02T15:13:08.821Z,12.83
2023-05-02T15:15:36.055Z,17.03
2023-05-02T15:18:03.235Z,16.27
2023-05-02T15:20:30.401Z,13.73
2023-05-02T15:22:59.048Z,15.20
2023-05-02T15:25:26.130Z,15.00
2023-05-02T15:27:53.144Z,15.40
2023-05-02T15:30:23.296Z,11.47
2023-05-02T15:32:50.859Z,16.10
2023-05-02T15:35:17.985Z,13.73
2023-05-02T15:37:45.022Z,13.73
2023-05-02T15:40:12.401Z,13.50
2023-05-02T15:42:40.248Z,14.70
2023-05-02T15:45:07.723Z,15.83
2023-05-02T15:47:34.789Z,14.70
2023-05-02T15:50:02.521Z,14.40
2023-05-02T15:52:29.766Z,16.20
2023-05-02T15:54:56.932Z,15.37
2023-05-02T15:57:23.942Z,16.67
2023-05-02T15:59:50.952Z,13.87
2023-05-02T16:02:18.003Z,15.13
2023-05-02T16:04:45.145Z,16.73
2023-05-02T16:07:12.169Z,15.00
2023-05-02T16:09:40.089Z,17.17
2023-05-02T16:12:07.446Z,17.37
2023-05-02T16:14:35.110Z,17.73
2023-05-02T16:17:02.334Z,18.37
2023-05-02T16:19:29.411Z,14.77
2023-05-02T16:21:56.511Z,15.97
2023-05-02T16:24:23.555Z,16.40
2023-05-02T16:26:50.625Z,19.63
2023-05-02T16:29:17.668Z,17.83
2023-05-02T16:31:44.945Z,17.90
2023-05-02T16:34:12.354Z,15.53
2023-05-02T16:36:39.338Z,17.47
2023-05-02T16:39:06.403Z,21.97
2023-05-02T16:41:36.282Z,20.17
2023-05-02T16:44:03.422Z,18.73
2023-05-02T16:46:31.791Z,19.00
2023-05-02T16:48:59.062Z,17.90
2023-05-02T16:51:26.114Z,17.40
2023-05-02T16:53:53.130Z,17.00
2023-05-02T16:56:20.112Z,20.30
2023-05-02T16:58:47.119Z,17.50
2023-05-02T17:01:14.136Z,18.10
2023-05-02T17:03:42.029Z,19.98
2023-05-02T17:06:09.317Z,20.52
2023-05-02T17:08:36.872Z,19.00
2023-05-02T17:11:03.862Z,16.98
2023-05-02T17:13:31.861Z,18.77
2023-05-02T17:15:59.671Z,18.60
2023-05-02T17:18:27.582Z,19.38
2023-05-02T17:20:54.972Z,19.77
2023-05-02T17:23:22.428Z,17.80
2023-05-02T17:25:49.500Z,14.82
2023-05-02T17:28:16.887Z,12.50
2023-05-02T17:30:44.343Z,13.05
2023-05-02T17:33:11.986Z,7.53
2023-05-02T17:35:39.091Z,9.27
2023-05-02T17:38:06.070Z,6.75
2023-05-02T17:40:33.037Z,6.20
2023-05-02T17:43:01.830Z,6.00
2023-05-02T17:45:29.583Z,5.72
2023-05-02T17:47:57.085Z,5.82
2023-05-02T17:50:24.675Z,7.05
2023-05-02T17:52:52.435Z,8.43
2023-05-02T17:55:19.929Z,7.60
2023-05-02T17:57:48.031Z,7.15
2023-05-02T18:00:15.669Z,8.23
2023-05-02T18:02:42.892Z,8.45
2023-05-02T18:05:10.521Z,8.82
2023-05-02T18:07:37.518Z,8.18
2023-05-02T18:10:05.731Z,7.93
2023-05-02T18:12:33.928Z,9.40
2023-05-02T18:15:02.213Z,7.43
2023-05-02T18:17:29.538Z,9.57
2023-05-02T18:19:56.907Z,9.23
2023-05-02T18:22:24.085Z,9.50
2023-05-02T18:24:51.737Z,12.80
2023-05-02T18:27:19.017Z,15.27
2023-05-02T18:29:46.473Z,11.32
2023-05-02T18:32:15.085Z,9.63
2023-05-02T18:34:42.155Z,12.35
2023-05-02T18:37:10.181Z,8.68
2023-05-02T18:39:37.681Z,8.55
2023-05-02T18:42:08.376Z,9.15
2023-05-02T18:44:35.970Z,10.43
2023-05-02T18:47:03.263Z,8.90
2023-05-02T18:49:31.016Z,9.20
2023-05-02T18:51:58.645Z,9.90
2023-05-02T18:54:28.639Z,9.40
2023-05-02T18:56:56.524Z,10.88
2023-05-02T18:59:24.970Z,9.70
2023-05-02T19:01:54.542Z,9.75
2023-05-02T19:04:22.167Z,8.45
2023-05-02T19:06:49.371Z,9.73
2023-05-02T19:09:18.403Z,10.10
2023-05-02T19:11:46.076Z,8.63
2023-05-02T19:14:14.064Z,9.27
2023-05-02T19:16:42.065Z,9.45
2023-05-02T19:19:11.505Z,10.38
2023-05-02T19:21:39.066Z,11.55
2023-05-02T19:24:07.182Z,9.65
2023-05-02T19:26:34.849Z,11.77
2023-05-02T19:29:02.578Z,9.60
2023-05-02T19:31:30.703Z,9.70
2023-05-02T19:33:58.538Z,10.98
2023-05-02T19:36:28.398Z,10.18
2023-05-02T19:38:58.679Z,9.95
2023-05-02T19:41:26.517Z,12.77
2023-05-02T19:43:56.465Z,10.38
2023-05-02T19:46:23.841Z,13.38
2023-05-02T19:48:51.546Z,14.60
2023-05-02T19:51:25.555Z,14.15
2023-05-02T19:53:59.058Z,14.88
2023-05-02T19:56:29.769Z,14.68
2023-05-02T19:58:59.101Z,15.25
2023-05-02T20:01:29.802Z,16.40
2023-05-02T20:03:58.590Z,15.18
2023-05-02T20:06:26.889Z,15.32
2023-05-02T20:08:55.241Z,17.65
2023-05-02T20:11:22.352Z,17.20
2023-05-02T20:13:50.322Z,15.68
2023-05-02T20:16:17.734Z,16.52
2023-05-02T20:18:45.202Z,15.57
2023-05-02T20:21:12.321Z,16.52
2023-05-02T20:23:43.552Z,16.85
2023-05-02T20:26:11.111Z,21.17
2023-05-02T20:28:38.202Z,16.50
2023-05-02T20:31:05.689Z,18.50
2023-05-02T20:33:43.715Z,16.80
2023-05-02T20:36:13.530Z,20.48
2023-05-02T20:38:42.645Z,20.98
2023-05-02T20:41:14.311Z,18.27
2023-05-02T20:43:45.261Z,18.13
2023-05-02T20:50:48.222Z,24.35
2023-05-02T20:53:15.732Z,24.30
2023-05-02T20:55:42.913Z,20.08
2023-05-02T20:58:10.033Z,24.80
2023-05-02T21:00:37.151Z,24.10
2023-05-02T21:03:04.310Z,25.02
2023-05-02T21:05:31.308Z,23.10
2023-05-02T21:07:58.356Z,28.35
2023-05-02T21:10:27.770Z,20.17
2023-05-02T21:12:54.793Z,20.30
2023-05-02T21:15:21.784Z,17.35
2023-05-02T21:17:48.871Z,16.40
2023-05-02T21:20:16.285Z,16.25
2023-05-02T21:22:43.280Z,16.42
2023-05-02T21:25:10.818Z,16.95
2023-05-02T21:27:37.920Z,14.95
2023-05-02T21:30:05.652Z,16.55
2023-05-02T21:32:33.129Z,14.32
2023-05-02T21:35:01.040Z,15.43
2023-05-02T21:37:28.369Z,16.95
2023-05-02T21:39:55.321Z,16.90
2023-05-02T21:42:22.399Z,16.40
2023-05-02T21:44:50.744Z,16.10
2023-05-02T21:47:17.828Z,14.05
2023-05-02T21:49:44.883Z,15.40
2023-05-02T21:52:12.200Z,14.07
2023-05-02T21:54:39.971Z,15.00
2023-05-02T21:57:07.094Z,14.98
2023-05-02T21:59:34.136Z,13.68
2023-05-02T22:02:01.240Z,13.23
2023-05-02T22:04:28.281Z,14.50
2023-05-02T22:06:55.639Z,15.07
2023-05-02T22:09:22.696Z,14.45
2023-05-02T22:11:49.769Z,14.57
2023-05-02T22:14:16.918Z,16.73
2023-05-02T22:16:43.865Z,17.17
2023-05-02T22:19:11.998Z,15.20
2023-05-02T22:21:38.952Z,14.90
2023-05-02T22:24:06.233Z,15.02
2023-05-02T22:26:33.191Z,14.77
2023-05-02T22:29:00.151Z,15.98
2023-05-02T22:31:27.275Z,16.02
2023-05-02T22:33:54.246Z,15.55
2023-05-02T22:36:21.218Z,17.35
2023-05-02T22:38:48.184Z,18.52
2023-05-02T22:41:15.228Z,17.45
2023-05-02T22:43:42.196Z,16.83
2023-05-02T22:46:09.211Z,17.15
2023-05-02T22:48:36.296Z,17.67
2023-05-02T22:51:03.324Z,18.17
2023-05-02T22:53:30.369Z,14.13
2023-05-02T22:55:57.316Z,14.50
2023-05-02T22:58:24.439Z,15.80
2023-05-02T23:00:51.509Z,17.83
2023-05-02T23:03:18.641Z,16.73
2023-05-02T23:05:45.882Z,15.60
2023-05-02T23:08:12.858Z,16.30
2023-05-02T23:10:39.837Z,19.20
2023-05-02T23:13:06.843Z,19.83
2023-05-02T23:15:33.844Z,15.35
2023-05-02T23:18:00.980Z,17.90
2023-05-02T23:20:28.250Z,16.23
2023-05-02T23:22:55.239Z,15.52
2023-05-02T23:25:26.495Z,16.30
2023-05-02T23:27:53.649Z,15.95
2023-05-02T23:30:21.157Z,18.02
2023-05-02T23:32:48.387Z,17.65
2023-05-02T23:35:15.763Z,18.15
2023-05-02T23:37:42.893Z,20.13
2023-05-02T23:40:10.530Z,17.38
2023-05-02T23:42:40.508Z,15.07
2023-05-02T23:45:09.186Z,14.45
2023-05-02T23:47:36.638Z,15.25
2023-05-02T23:50:05.702Z,15.18
2023-05-02T23:52:33.537Z,14.52
2023-05-02T23:55:00.597Z,13.32
2023-05-02T23:57:30.399Z,13.20
2023-05-02T23:59:57.358Z,13.85
